KSKA/SKA METAR and TAF weather

Enter ICAO airport designator
Station Type Date Time Source
KSKA METAR 2018/12/13 05:58 UTC NOAA

KSKA 130558Z 18012KT 10SM FEW065 OVC085 01/01 A3020 RMK AO2A SLP251 T00110010 10017 21003 55001 $


Station Type Date Time Source
KSKA Decoded METAR 2018/12/13 05:58 UTC NOAA

Fairchild Air Force Base, WA, United States (KSKA) 47-37N 117-39W
Dec 13, 2018 - 12:58 AM EST / 2018.12.13 0558 UTC
Wind: from the S (180 degrees) at 14 MPH (12 KT):0
Visibility: 10 mile(s):0
Sky conditions: overcast
Temperature: 34.0 F (1.1 C)
Windchill: 24 F (-4 C):1
Dew Point: 33.8 F (1.0 C)
Relative Humidity: 99%
Pressure (altimeter): 30.2 in. Hg (1022 hPa)
Pressure tendency: 0.00 inches (0.1 hPa) lower than three hours ago
ob: KSKA 130558Z 18012KT 10SM FEW065 OVC085 01/01 A3020 RMK AO2A SLP251 T00110010 10017 21003 55001
cycle: 6

Station Type Date Time Source
KSKA TAF 2018/12/13 03:06 UTC NOAA

TAF KSKA 130302Z 1303/1409 17012KT 9999 SCT100 BKN150 QNH3020INS
BECMG 1305/1306 20009KT 8000 BR FEW003 BKN060 620609 QNH3008INS
BECMG 1311/1312 19012KT 4800 -SN BR OVC007 620079 QNH3002INS
BECMG 1315/1316 20012KT 8000 BR VCSH BKN030 610309 QNH3000INS
BECMG 1405/1406 18008KT 9999 NSW BKN030 610309 QNH2999INS TX03/1321Z TNM01/1312Z


Example: see airport list